createdAt,value
2023-01-03T00:00:27.702Z,1.90
2023-01-03T00:02:59.510Z,1.90
2023-01-03T00:05:33.769Z,1.80
2023-01-03T00:08:05.739Z,1.70
2023-01-03T00:10:37.650Z,2.43
2023-01-03T00:13:09.511Z,2.00
2023-01-03T00:15:41.424Z,1.20
2023-01-03T00:18:13.165Z,1.60
2023-01-03T00:20:45.019Z,1.33
2023-01-03T00:23:16.749Z,1.23
2023-01-03T00:25:48.450Z,1.47
2023-01-03T00:28:20.229Z,1.20
2023-01-03T00:30:51.973Z,1.50
2023-01-03T00:33:23.833Z,1.60
2023-01-03T00:35:55.504Z,1.63
2023-01-03T00:38:27.256Z,1.60
2023-01-03T00:41:10.653Z,2.23
2023-01-03T00:43:44.212Z,1.90
2023-01-03T00:46:18.172Z,1.70
2023-01-03T00:48:50.447Z,1.33
2023-01-03T00:51:28.539Z,1.70
2023-01-03T00:54:02.102Z,1.50
2023-01-03T00:56:37.195Z,1.00
2023-01-03T00:59:09.774Z,2.00
2023-01-03T01:01:47.460Z,1.90
2023-01-03T01:04:23.749Z,1.53
2023-01-03T01:06:58.326Z,2.30
2023-01-03T01:09:35.326Z,2.40
2023-01-03T01:12:07.637Z,1.70
2023-01-03T01:14:39.370Z,1.30
2023-01-03T01:17:11.281Z,1.50
2023-01-03T01:19:44.002Z,1.67
2023-01-03T01:22:15.895Z,1.70
2023-01-03T01:24:47.687Z,1.40
2023-01-03T01:27:19.474Z,1.08
2023-01-03T01:29:51.352Z,1.40
2023-01-03T01:32:23.402Z,1.50
2023-01-03T01:34:55.466Z,1.40
2023-01-03T01:37:27.165Z,1.60
2023-01-03T01:39:58.878Z,1.63
2023-01-03T01:42:49.160Z,1.50
2023-01-03T01:45:20.875Z,1.70
2023-01-03T01:47:56.095Z,1.67
2023-01-03T01:50:45.074Z,1.20
2023-01-03T01:53:23.192Z,1.70
2023-01-03T01:56:06.245Z,1.40
2023-01-03T01:58:41.124Z,1.37
2023-01-03T02:01:14.989Z,1.57
2023-01-03T02:03:55.450Z,1.30
2023-01-03T02:06:28.801Z,1.63
2023-01-03T02:09:00.858Z,1.43
2023-01-03T02:11:37.499Z,2.40
2023-01-03T02:14:42.452Z,1.90
2023-01-03T02:17:47.489Z,2.27
2023-01-03T02:20:32.227Z,2.30
2023-01-03T02:23:33.579Z,1.80
2023-01-03T02:26:11.069Z,2.13
2023-01-03T02:29:04.956Z,1.50
2023-01-03T02:31:50.577Z,2.40
2023-01-03T02:34:49.235Z,1.43
2023-01-03T02:37:35.952Z,1.60
2023-01-03T02:40:34.738Z,1.50
2023-01-03T02:43:16.323Z,1.40
2023-01-03T02:46:06.441Z,1.30
2023-01-03T02:48:59.179Z,1.60
2023-01-03T02:51:39.437Z,1.70
2023-01-03T02:54:18.533Z,1.60
2023-01-03T02:56:52.399Z,2.23
2023-01-03T02:59:36.563Z,2.70
2023-01-03T03:02:09.849Z,1.63
2023-01-03T03:04:45.125Z,2.23
2023-01-03T03:07:31.235Z,1.80
2023-01-03T03:10:22.710Z,1.83
2023-01-03T03:13:15.500Z,2.03
2023-01-03T03:15:59.091Z,2.40
2023-01-03T03:18:43.097Z,2.30
2023-01-03T03:21:37.153Z,1.73
2023-01-03T03:24:33.248Z,1.67
2023-01-03T03:27:29.163Z,1.77
2023-01-03T03:30:03.762Z,2.00
2023-01-03T03:32:38.412Z,1.70
2023-01-03T03:35:14.108Z,1.80
2023-01-03T03:37:49.119Z,2.10
2023-01-03T03:40:42.296Z,2.10
2023-01-03T03:44:00.731Z,2.13
2023-01-03T03:46:41.397Z,1.73
2023-01-03T03:49:36.571Z,1.77
2023-01-03T03:52:16.023Z,1.87
2023-01-03T03:54:54.383Z,2.27
2023-01-03T03:58:06.880Z,1.80
2023-01-03T04:00:41.813Z,1.80
2023-01-03T04:03:15.815Z,2.37
2023-01-03T04:05:55.660Z,2.10
2023-01-03T04:08:27.550Z,1.80
2023-01-03T04:11:08.028Z,1.60
2023-01-03T04:13:40.047Z,1.97
2023-01-03T04:16:12.338Z,2.00
2023-01-03T04:18:44.138Z,2.00
2023-01-03T04:21:20.662Z,2.27
2023-01-03T04:23:53.054Z,1.77
2023-01-03T04:26:24.895Z,1.93
2023-01-03T04:28:56.735Z,2.30
2023-01-03T04:31:28.493Z,2.37
2023-01-03T04:34:00.308Z,2.20
2023-01-03T04:36:32.088Z,1.73
2023-01-03T04:39:03.916Z,2.17
2023-01-03T04:41:35.788Z,2.00
2023-01-03T04:44:07.547Z,1.93
2023-01-03T04:46:40.391Z,1.87
2023-01-03T04:49:12.107Z,2.00
2023-01-03T04:51:43.878Z,2.43
2023-01-03T04:54:15.736Z,1.97
2023-01-03T04:56:47.442Z,2.13
2023-01-03T04:59:19.162Z,2.27
2023-01-03T05:01:52.251Z,1.80
2023-01-03T05:04:24.464Z,1.77
2023-01-03T05:06:57.005Z,1.80
2023-01-03T05:09:29.082Z,1.70
2023-01-03T05:12:00.795Z,3.67
2023-01-03T05:14:32.583Z,2.60
2023-01-03T05:17:04.366Z,2.80
2023-01-03T05:19:56.693Z,2.80
2023-01-03T05:22:47.060Z,2.20
2023-01-03T05:25:37.448Z,2.07
2023-01-03T05:28:13.798Z,2.13
2023-01-03T05:30:49.088Z,1.92
2023-01-03T05:33:20.849Z,2.30
2023-01-03T05:35:52.755Z,3.00
2023-01-03T05:38:24.779Z,2.30
2023-01-03T05:40:56.471Z,2.23
2023-01-03T05:43:28.253Z,2.20
2023-01-03T05:46:00.224Z,2.10
2023-01-03T05:48:32.059Z,2.00
2023-01-03T05:51:04.142Z,1.80
2023-01-03T05:53:36.007Z,2.17
2023-01-03T05:56:08.019Z,2.17
2023-01-03T05:58:39.755Z,2.03
2023-01-03T06:01:13.074Z,2.20
2023-01-03T06:03:48.212Z,2.20
2023-01-03T06:06:20.081Z,2.17
2023-01-03T06:08:51.947Z,2.00
2023-01-03T06:11:23.683Z,1.63
2023-01-03T06:13:55.415Z,2.13
2023-01-03T06:16:45.935Z,1.70
2023-01-03T06:19:17.772Z,2.53
2023-01-03T06:21:49.460Z,2.20
2023-01-03T06:24:21.239Z,2.87
2023-01-03T06:26:52.974Z,3.37
2023-01-03T06:29:24.655Z,3.00
2023-01-03T06:31:56.499Z,2.27
2023-01-03T06:34:28.265Z,2.53
2023-01-03T06:37:00.009Z,2.50
2023-01-03T06:39:33.495Z,2.10
2023-01-03T06:42:23.681Z,2.50
2023-01-03T06:45:14.089Z,2.70
2023-01-03T06:48:04.576Z,2.80
2023-01-03T06:51:20.709Z,2.20
2023-01-03T06:53:52.514Z,2.60
2023-01-03T06:56:25.913Z,2.60
2023-01-03T06:58:57.650Z,3.10
2023-01-03T07:01:29.698Z,2.57
2023-01-03T07:04:02.543Z,2.60
2023-01-03T07:06:34.376Z,2.73
2023-01-03T07:09:06.805Z,2.70
2023-01-03T07:11:39.526Z,2.93
2023-01-03T07:14:12.481Z,2.93
2023-01-03T07:16:47.234Z,2.30
2023-01-03T07:19:19.999Z,2.25
2023-01-03T07:21:51.738Z,2.97
2023-01-03T07:24:23.491Z,3.60
2023-01-03T07:26:55.588Z,2.40
2023-01-03T07:29:27.327Z,2.40
2023-01-03T07:31:59.505Z,2.00
2023-01-03T07:34:31.335Z,2.40
2023-01-03T07:37:03.100Z,2.47
2023-01-03T07:39:34.795Z,2.83
2023-01-03T07:42:29.806Z,2.53
2023-01-03T07:45:02.042Z,2.17
2023-01-03T07:47:33.918Z,2.57
2023-01-03T07:50:05.787Z,2.27
2023-01-03T07:52:37.478Z,2.40
2023-01-03T07:55:09.341Z,2.70
2023-01-03T07:57:41.089Z,2.40
2023-01-03T08:00:13.309Z,3.27
2023-01-03T08:02:45.328Z,3.83
2023-01-03T08:05:17.340Z,3.00
2023-01-03T08:07:49.871Z,3.50
2023-01-03T08:10:40.184Z,3.37
2023-01-03T08:13:17.841Z,3.30
2023-01-03T08:15:51.005Z,3.80
2023-01-03T08:18:25.017Z,4.07
2023-01-03T08:20:57.406Z,3.90
2023-01-03T08:23:29.800Z,4.00
2023-01-03T08:26:15.584Z,4.00
2023-01-03T08:28:47.269Z,3.13
2023-01-03T08:31:22.157Z,3.30
2023-01-03T08:33:58.128Z,3.10
2023-01-03T08:36:39.815Z,3.33
2023-01-03T08:39:16.886Z,3.10
2023-01-03T08:41:59.213Z,3.50
2023-01-03T08:44:31.152Z,3.47
2023-01-03T08:47:07.765Z,3.57
2023-01-03T08:49:40.045Z,4.03
2023-01-03T08:52:11.831Z,2.70
2023-01-03T08:54:44.027Z,3.73
2023-01-03T08:57:15.821Z,4.53
2023-01-03T08:59:47.614Z,3.83
2023-01-03T09:02:19.382Z,4.80
2023-01-03T09:04:51.241Z,5.40
2023-01-03T09:07:22.952Z,4.20
2023-01-03T09:09:54.719Z,4.50
2023-01-03T09:12:27.908Z,4.20
2023-01-03T09:14:59.617Z,4.23
2023-01-03T09:17:31.448Z,6.13
2023-01-03T09:20:03.447Z,4.57
2023-01-03T09:22:35.263Z,4.30
2023-01-03T09:25:07.577Z,5.00
2023-01-03T09:27:39.304Z,4.80
2023-01-03T09:30:11.334Z,6.20
2023-01-03T09:32:43.142Z,5.57
2023-01-03T09:35:14.887Z,5.53
2023-01-03T09:37:49.719Z,5.87
2023-01-03T09:40:21.558Z,5.87
2023-01-03T09:43:12.122Z,5.00
2023-01-03T09:45:52.149Z,5.70
2023-01-03T09:48:35.844Z,4.60
2023-01-03T09:51:30.380Z,3.30
2023-01-03T09:54:41.044Z,2.87
2023-01-03T09:57:45.768Z,2.57
2023-01-03T10:00:43.065Z,2.43
2023-01-03T10:03:52.589Z,3.20
2023-01-03T10:07:05.003Z,4.87
2023-01-03T10:09:43.159Z,6.63
2023-01-03T10:12:36.727Z,4.80
2023-01-03T10:15:23.479Z,7.07
2023-01-03T10:18:10.181Z,4.60
2023-01-03T10:20:59.732Z,4.30
2023-01-03T10:23:31.828Z,4.10
2023-01-03T10:26:12.545Z,4.70
2023-01-03T10:28:46.043Z,4.00
2023-01-03T10:31:47.213Z,3.77
2023-01-03T10:34:18.991Z,4.10
2023-01-03T10:36:50.669Z,2.63
2023-01-03T10:39:31.478Z,3.50
2023-01-03T10:42:05.591Z,3.00
2023-01-03T10:44:37.353Z,3.03
2023-01-03T10:47:15.274Z,3.30
2023-01-03T10:49:47.358Z,3.50
2023-01-03T10:52:22.919Z,3.37
2023-01-03T10:55:02.068Z,3.43
2023-01-03T10:57:53.085Z,2.90
2023-01-03T11:00:26.948Z,2.90
2023-01-03T11:03:10.994Z,2.60
2023-01-03T11:05:46.513Z,3.10
2023-01-03T11:08:34.869Z,2.63
2023-01-03T11:11:30.637Z,2.53
2023-01-03T11:14:23.047Z,1.90
2023-01-03T11:17:05.255Z,2.63
2023-01-03T11:19:36.999Z,2.70
2023-01-03T11:22:38.115Z,2.75
2023-01-03T11:25:22.206Z,3.07
2023-01-03T11:28:18.505Z,3.00
2023-01-03T11:31:14.759Z,1.83
2023-01-03T11:34:55.404Z,2.20
2023-01-03T11:37:28.528Z,2.70
2023-01-03T11:40:12.178Z,2.40
2023-01-03T11:42:58.937Z,2.77
2023-01-03T11:46:06.436Z,2.70
2023-01-03T11:49:04.458Z,3.10
2023-01-03T11:51:54.604Z,4.00
2023-01-03T11:55:11.073Z,2.73
2023-01-03T11:58:10.312Z,3.03
2023-01-03T12:00:52.740Z,2.40
2023-01-03T12:03:48.783Z,2.20
2023-01-03T12:07:21.586Z,1.90
2023-01-03T12:09:59.614Z,2.00
2023-01-03T12:12:49.417Z,2.00
2023-01-03T12:15:46.517Z,1.90
2023-01-03T12:18:28.458Z,1.50
2023-01-03T12:21:09.121Z,1.73
2023-01-03T12:23:45.491Z,1.63
2023-01-03T12:26:17.449Z,1.67
2023-01-03T12:29:05.715Z,1.77
2023-01-03T12:31:49.649Z,1.40
2023-01-03T12:34:36.670Z,1.53
2023-01-03T12:37:19.312Z,1.70
2023-01-03T12:40:04.854Z,1.57
2023-01-03T12:43:03.628Z,1.67
2023-01-03T12:45:41.391Z,1.63
2023-01-03T12:48:31.185Z,1.40
2023-01-03T12:51:02.952Z,1.43
2023-01-03T12:54:09.054Z,1.73
2023-01-03T12:56:47.967Z,1.50
2023-01-03T12:59:46.118Z,2.13
2023-01-03T13:02:26.983Z,1.60
2023-01-03T13:05:18.536Z,1.70
2023-01-03T13:08:13.420Z,1.50
2023-01-03T13:10:50.509Z,1.80
2023-01-03T13:13:22.667Z,1.27
2023-01-03T13:15:54.623Z,1.67
2023-01-03T13:18:30.978Z,1.50
2023-01-03T13:21:45.261Z,1.20
2023-01-03T13:24:38.804Z,1.73
2023-01-03T13:27:19.461Z,1.53
2023-01-03T13:29:51.291Z,1.80
2023-01-03T13:32:23.083Z,2.80
2023-01-03T13:34:54.772Z,1.60
2023-01-03T13:37:51.227Z,1.90
2023-01-03T13:41:07.968Z,1.87
2023-01-03T13:43:40.169Z,2.10
2023-01-03T13:46:29.202Z,1.87
2023-01-03T13:49:07.384Z,2.00
2023-01-03T13:51:39.118Z,1.40
2023-01-03T13:54:13.935Z,1.73
2023-01-03T13:56:45.664Z,2.43
2023-01-03T13:59:50.463Z,2.30
2023-01-03T14:02:37.845Z,1.90
2023-01-03T14:05:18.631Z,2.07
2023-01-03T14:08:02.169Z,2.10
2023-01-03T14:10:55.140Z,1.73
2023-01-03T14:13:49.811Z,2.20
2023-01-03T14:16:28.376Z,2.30
2023-01-03T14:19:24.170Z,1.60
2023-01-03T14:22:31.474Z,2.20
2023-01-03T14:25:04.117Z,2.53
2023-01-03T14:27:40.252Z,1.93
2023-01-03T14:30:24.235Z,2.23
2023-01-03T14:32:56.166Z,2.80
2023-01-03T14:35:46.246Z,1.77
2023-01-03T14:38:30.009Z,1.80
2023-01-03T14:41:03.098Z,2.30
2023-01-03T14:43:35.586Z,2.00
2023-01-03T14:46:11.220Z,2.03
2023-01-03T14:48:46.538Z,2.03
2023-01-03T14:51:18.981Z,2.20
2023-01-03T14:53:52.047Z,2.50
2023-01-03T14:56:26.028Z,2.23
2023-01-03T14:58:58.489Z,2.00
2023-01-03T15:01:30.526Z,2.53
2023-01-03T15:04:02.772Z,2.60
2023-01-03T15:06:35.960Z,2.47
2023-01-03T15:09:22.214Z,1.77
2023-01-03T15:11:59.572Z,1.67
2023-01-03T15:14:34.530Z,2.08
2023-01-03T15:17:15.328Z,1.60
2023-01-03T15:19:54.187Z,1.83
2023-01-03T15:22:39.012Z,2.10
2023-01-03T15:25:18.102Z,1.80
2023-01-03T15:27:50.837Z,1.63
2023-01-03T15:30:25.719Z,2.30
2023-01-03T15:33:01.358Z,2.60
2023-01-03T15:35:43.032Z,1.73
2023-01-03T15:38:28.693Z,1.93
2023-01-03T15:41:01.433Z,1.90
2023-01-03T15:43:37.794Z,1.97
2023-01-03T15:46:16.717Z,1.90
2023-01-03T15:48:56.668Z,2.10
2023-01-03T15:51:28.533Z,1.77
2023-01-03T15:54:00.215Z,1.90
2023-01-03T15:56:36.702Z,2.10
2023-01-03T15:59:09.451Z,2.40
2023-01-03T16:01:41.253Z,2.10
2023-01-03T16:04:13.603Z,2.27
2023-01-03T16:06:45.564Z,1.87
2023-01-03T16:09:17.299Z,2.27
2023-01-03T16:11:55.952Z,1.80
2023-01-03T16:14:36.835Z,2.60
2023-01-03T16:17:20.850Z,2.20
2023-01-03T16:19:58.856Z,2.50
2023-01-03T16:22:35.766Z,2.03
2023-01-03T16:25:15.378Z,2.13
2023-01-03T16:27:47.067Z,2.70
2023-01-03T16:30:18.945Z,2.63
2023-01-03T16:32:50.925Z,3.30
2023-01-03T16:35:22.864Z,3.10
2023-01-03T16:37:54.576Z,3.20
2023-01-03T16:40:26.404Z,3.10
2023-01-03T16:42:58.111Z,3.03
2023-01-03T16:45:29.870Z,3.40
2023-01-03T16:48:01.783Z,2.90
2023-01-03T16:50:36.867Z,3.90
2023-01-03T16:53:09.583Z,4.30
2023-01-03T16:55:41.361Z,5.30
2023-01-03T16:58:15.886Z,6.73
2023-01-03T17:00:47.790Z,5.23
2023-01-03T17:03:20.215Z,5.97
2023-01-03T17:05:52.281Z,5.67
2023-01-03T17:08:28.850Z,4.25
2023-01-03T17:11:01.524Z,4.73
2023-01-03T17:13:39.700Z,4.57
2023-01-03T17:16:31.891Z,3.77
2023-01-03T17:19:03.640Z,4.30
2023-01-03T17:21:35.556Z,4.90
2023-01-03T17:24:28.824Z,4.07
2023-01-03T17:27:04.299Z,4.10
2023-01-03T17:29:36.993Z,3.67
2023-01-03T17:32:20.228Z,4.00
2023-01-03T17:34:52.048Z,3.88
2023-01-03T17:37:24.415Z,4.37
2023-01-03T17:39:59.670Z,4.20
2023-01-03T17:42:31.421Z,3.83
2023-01-03T17:45:21.756Z,4.57
2023-01-03T17:48:12.155Z,4.53
2023-01-03T17:50:44.939Z,4.47
2023-01-03T17:53:20.036Z,4.40
2023-01-03T17:55:51.842Z,3.83
2023-01-03T17:58:37.608Z,3.87
2023-01-03T18:01:11.980Z,3.83
2023-01-03T18:03:48.436Z,4.27
2023-01-03T18:06:22.703Z,3.78
2023-01-03T18:08:56.417Z,4.50
2023-01-03T18:11:28.317Z,4.10
2023-01-03T18:14:00.031Z,4.60
2023-01-03T18:16:31.869Z,4.30
2023-01-03T18:19:03.558Z,4.17
2023-01-03T18:21:35.819Z,3.30
2023-01-03T18:24:23.493Z,3.60
2023-01-03T18:26:56.684Z,3.33
2023-01-03T18:29:28.426Z,3.10
2023-01-03T18:32:00.140Z,2.57
2023-01-03T18:34:31.878Z,2.90
2023-01-03T18:37:03.671Z,3.17
2023-01-03T18:39:35.401Z,3.50
2023-01-03T18:42:27.608Z,3.27
2023-01-03T18:44:59.322Z,4.40
2023-01-03T18:47:31.061Z,4.17
2023-01-03T18:50:03.051Z,5.63
2023-01-03T18:52:39.721Z,7.63
2023-01-03T18:55:17.233Z,11.50
2023-01-03T18:57:50.745Z,7.50
2023-01-03T19:00:26.342Z,6.00
2023-01-03T19:02:58.358Z,4.57
2023-01-03T19:05:30.243Z,5.30
2023-01-03T19:08:01.959Z,4.70
2023-01-03T19:10:33.637Z,4.90
2023-01-03T19:13:05.892Z,5.73
2023-01-03T19:15:37.627Z,5.00
2023-01-03T19:18:10.061Z,6.20
2023-01-03T19:20:42.158Z,5.60
2023-01-03T19:23:26.698Z,8.00
2023-01-03T19:26:01.309Z,5.67
2023-01-03T19:28:33.043Z,6.60
2023-01-03T19:31:04.983Z,5.77
2023-01-03T19:33:36.786Z,6.00
2023-01-03T19:36:14.825Z,8.50
2023-01-03T19:38:46.619Z,5.97
2023-01-03T19:41:20.179Z,6.07
2023-01-03T19:43:52.058Z,6.03
2023-01-03T19:46:23.901Z,5.80
2023-01-03T19:48:55.664Z,95.93
2023-01-03T19:51:27.439Z,84.67
2023-01-03T19:53:59.093Z,51.50
2023-01-03T19:56:30.864Z,36.77
2023-01-03T19:59:03.659Z,9.33
2023-01-03T20:01:58.345Z,5.57
2023-01-03T20:04:28.865Z,15.07
2023-01-03T20:07:00.580Z,22.60
2023-01-03T20:09:32.238Z,20.17
2023-01-03T20:12:04.142Z,15.60
2023-01-03T20:14:36.176Z,18.60
2023-01-03T20:17:25.094Z,19.27
2023-01-03T20:19:56.861Z,20.73
2023-01-03T20:23:03.225Z,19.70
2023-01-03T20:25:28.816Z,20.10
2023-01-03T20:28:01.464Z,17.53
2023-01-03T20:30:34.442Z,18.87
2023-01-03T20:33:06.236Z,18.20
2023-01-03T20:36:09.752Z,13.43
2023-01-03T20:38:29.967Z,12.97
2023-01-03T20:41:01.659Z,11.90
2023-01-03T20:43:33.477Z,10.63
2023-01-03T20:46:05.366Z,10.20
2023-01-03T20:48:37.196Z,9.40
2023-01-03T20:51:12.970Z,8.13
2023-01-03T20:53:47.815Z,9.43
2023-01-03T20:56:23.110Z,14.10
2023-01-03T20:58:54.939Z,22.60
2023-01-03T21:01:26.910Z,12.17
2023-01-03T21:03:58.700Z,11.63
2023-01-03T21:06:34.271Z,8.37
2023-01-03T21:09:06.089Z,7.30
2023-01-03T21:11:38.896Z,8.47
2023-01-03T21:14:10.735Z,7.27
2023-01-03T21:16:45.023Z,8.37
2023-01-03T21:19:22.103Z,9.10
2023-01-03T21:21:55.109Z,9.53
2023-01-03T21:24:26.798Z,8.87
2023-01-03T21:26:58.746Z,9.10
2023-01-03T21:29:30.473Z,8.43
2023-01-03T21:32:02.184Z,8.87
2023-01-03T21:34:34.155Z,9.13
2023-01-03T21:37:05.885Z,9.47
2023-01-03T21:39:37.601Z,10.70
2023-01-03T21:42:32.121Z,12.73
2023-01-03T21:45:04.156Z,11.32
2023-01-03T21:47:35.845Z,12.60
2023-01-03T21:50:08.534Z,13.20
2023-01-03T21:52:40.352Z,11.97
2023-01-03T21:55:12.244Z,12.13
2023-01-03T21:57:44.326Z,12.37
2023-01-03T22:00:17.016Z,13.27
2023-01-03T22:03:07.896Z,12.80
2023-01-03T22:05:39.705Z,13.17
2023-01-03T22:08:11.464Z,11.93
2023-01-03T22:10:43.237Z,13.30
2023-01-03T22:13:15.028Z,13.23
2023-01-03T22:15:46.689Z,13.93
2023-01-03T22:18:18.362Z,13.50
2023-01-03T22:20:50.051Z,13.20
2023-01-03T22:23:21.852Z,13.60
2023-01-03T22:25:53.535Z,12.17
2023-01-03T22:28:25.282Z,11.67
2023-01-03T22:30:56.971Z,15.77
2023-01-03T22:33:28.692Z,14.67
2023-01-03T22:36:00.819Z,14.40
2023-01-03T22:38:32.555Z,12.83
2023-01-03T22:41:12.397Z,14.00
2023-01-03T22:43:45.042Z,12.87
2023-01-03T22:46:21.904Z,15.80
2023-01-03T22:48:55.299Z,15.70
2023-01-03T22:51:27.040Z,15.83
2023-01-03T22:53:58.765Z,14.57
2023-01-03T22:56:30.482Z,14.60
2023-01-03T22:59:02.353Z,16.83
2023-01-03T23:01:34.288Z,16.77
2023-01-03T23:04:08.855Z,15.00
2023-01-03T23:06:40.606Z,14.73
2023-01-03T23:09:13.957Z,14.73
2023-01-03T23:12:04.505Z,16.10
2023-01-03T23:14:36.453Z,14.90
2023-01-03T23:17:26.955Z,15.30
2023-01-03T23:19:58.693Z,14.73
2023-01-03T23:22:30.909Z,14.20
2023-01-03T23:25:02.606Z,14.07
2023-01-03T23:27:34.724Z,14.50
2023-01-03T23:30:07.129Z,15.00
2023-01-03T23:32:38.833Z,14.80
2023-01-03T23:35:10.594Z,14.70
2023-01-03T23:37:42.312Z,13.90
2023-01-03T23:40:14.574Z,13.90
2023-01-03T23:42:46.411Z,13.20
2023-01-03T23:45:18.128Z,15.33
2023-01-03T23:47:51.767Z,13.43
2023-01-03T23:50:23.584Z,14.67
2023-01-03T23:52:55.369Z,15.13
2023-01-03T23:55:27.203Z,17.60
2023-01-03T23:57:58.872Z,13.43
